sensor_id;sensor_type;location;lat;lon;timestamp;pressure;altitude;pressure_sealevel;temperature;humidity
13058;BME280;6595;49.578;11.012;2023-07-28T00:00:23;981.550;;;16.70;93.3
13058;BME280;6595;49.578;11.012;2023-07-28T00:02:23;981.555;;;16.68;93.2
13058;BME280;6595;49.578;11.012;2023-07-28T00:04:24;981.511;;;16.67;93.2
13058;BME280;6595;49.578;11.012;2023-07-28T00:06:23;981.507;;;16.65;92.8
13058;BME280;6595;49.578;11.012;2023-07-28T00:08:23;981.454;;;16.67;93.0
13058;BME280;6595;49.578;11.012;2023-07-28T00:10:24;981.467;;;16.65;92.9
13058;BME280;6595;49.578;11.012;2023-07-28T00:12:23;981.431;;;16.65;92.9
13058;BME280;6595;49.578;11.012;2023-07-28T00:14:23;981.445;;;16.64;93.0
13058;BME280;6595;49.578;11.012;2023-07-28T00:16:24;981.434;;;16.64;93.0
13058;BME280;6595;49.578;11.012;2023-07-28T00:18:23;981.421;;;16.65;93.0
13058;BME280;6595;49.578;11.012;2023-07-28T00:20:23;981.330;;;16.67;93.1
13058;BME280;6595;49.578;11.012;2023-07-28T00:22:24;981.384;;;16.68;93.3
13058;BME280;6595;49.578;11.012;2023-07-28T00:24:24;981.344;;;16.68;93.2
13058;BME280;6595;49.578;11.012;2023-07-28T00:26:23;981.282;;;16.67;93.3
13058;BME280;6595;49.578;11.012;2023-07-28T00:28:23;981.408;;;16.67;93.1
13058;BME280;6595;49.578;11.012;2023-07-28T00:30:23;981.405;;;16.64;93.2
13058;BME280;6595;49.578;11.012;2023-07-28T00:32:24;981.419;;;16.67;93.3
13058;BME280;6595;49.578;11.012;2023-07-28T00:34:23;981.309;;;16.67;93.5
13058;BME280;6595;49.578;11.012;2023-07-28T00:36:23;981.348;;;16.65;93.2
13058;BME280;6595;49.578;11.012;2023-07-28T00:38:24;981.383;;;16.64;93.5
13058;BME280;6595;49.578;11.012;2023-07-28T00:40:24;981.335;;;16.65;93.7
13058;BME280;6595;49.578;11.012;2023-07-28T00:42:23;981.297;;;16.65;93.6
13058;BME280;6595;49.578;11.012;2023-07-28T00:44:24;981.297;;;16.65;93.6
13058;BME280;6595;49.578;11.012;2023-07-28T00:46:23;981.400;;;16.62;93.3
13058;BME280;6595;49.578;11.012;2023-07-28T00:48:23;981.388;;;16.64;93.5
13058;BME280;6595;49.578;11.012;2023-07-28T00:50:24;981.392;;;16.62;93.5
13058;BME280;6595;49.578;11.012;2023-07-28T00:52:23;981.295;;;16.64;93.4
13058;BME280;6595;49.578;11.012;2023-07-28T00:54:23;981.248;;;16.62;93.5
13058;BME280;6595;49.578;11.012;2023-07-28T00:56:24;981.324;;;16.62;93.4
13058;BME280;6595;49.578;11.012;2023-07-28T00:58:24;981.342;;;16.61;93.4
13058;BME280;6595;49.578;11.012;2023-07-28T01:00:23;981.314;;;16.61;93.6
13058;BME280;6595;49.578;11.012;2023-07-28T01:02:24;981.322;;;16.61;93.5
13058;BME280;6595;49.578;11.012;2023-07-28T01:04:24;981.279;;;16.60;93.5
13058;BME280;6595;49.578;11.012;2023-07-28T01:06:31;981.291;;;16.60;93.5
13058;BME280;6595;49.578;11.012;2023-07-28T01:08:27;981.363;;;16.61;93.5
13058;BME280;6595;49.578;11.012;2023-07-28T01:10:26;981.359;;;16.60;93.6
13058;BME280;6595;49.578;11.012;2023-07-28T01:12:24;981.262;;;16.58;93.7
13058;BME280;6595;49.578;11.012;2023-07-28T01:14:24;981.248;;;16.61;93.6
13058;BME280;6595;49.578;11.012;2023-07-28T01:16:24;981.406;;;16.57;93.7
13058;BME280;6595;49.578;11.012;2023-07-28T01:18:23;981.257;;;16.58;93.6
13058;BME280;6595;49.578;11.012;2023-07-28T01:20:27;981.279;;;16.58;93.6
13058;BME280;6595;49.578;11.012;2023-07-28T01:22:39;981.268;;;16.55;93.7
13058;BME280;6595;49.578;11.012;2023-07-28T01:24:34;981.293;;;16.54;93.5
13058;BME280;6595;49.578;11.012;2023-07-28T01:26:29;981.259;;;16.55;93.7
13058;BME280;6595;49.578;11.012;2023-07-28T01:28:24;981.245;;;16.55;93.8
13058;BME280;6595;49.578;11.012;2023-07-28T01:30:23;981.218;;;16.55;93.8
13058;BME280;6595;49.578;11.012;2023-07-28T01:32:24;981.232;;;16.57;93.8
13058;BME280;6595;49.578;11.012;2023-07-28T01:34:24;981.231;;;16.57;93.8
13058;BME280;6595;49.578;11.012;2023-07-28T01:36:23;981.096;;;16.60;94.1
13058;BME280;6595;49.578;11.012;2023-07-28T01:38:23;981.174;;;16.57;94.0
13058;BME280;6595;49.578;11.012;2023-07-28T01:40:24;981.100;;;16.57;93.9
13058;BME280;6595;49.578;11.012;2023-07-28T01:42:23;981.162;;;16.54;93.9
13058;BME280;6595;49.578;11.012;2023-07-28T01:44:23;981.250;;;16.54;93.9
13058;BME280;6595;49.578;11.012;2023-07-28T01:46:24;981.251;;;16.54;93.8
13058;BME280;6595;49.578;11.012;2023-07-28T01:48:23;981.215;;;16.52;94.1
13058;BME280;6595;49.578;11.012;2023-07-28T01:50:23;981.242;;;16.57;94.2
13058;BME280;6595;49.578;11.012;2023-07-28T01:52:24;981.229;;;16.57;94.3
13058;BME280;6595;49.578;11.012;2023-07-28T01:54:23;981.304;;;16.57;94.1
13058;BME280;6595;49.578;11.012;2023-07-28T01:56:24;981.273;;;16.57;94.1
13058;BME280;6595;49.578;11.012;2023-07-28T01:58:24;981.329;;;16.57;94.1
13058;BME280;6595;49.578;11.012;2023-07-28T02:00:23;981.393;;;16.54;94.2
13058;BME280;6595;49.578;11.012;2023-07-28T02:02:24;981.277;;;16.57;94.0
13058;BME280;6595;49.578;11.012;2023-07-28T02:04:24;981.347;;;16.57;94.0
13058;BME280;6595;49.578;11.012;2023-07-28T02:06:23;981.270;;;16.54;94.2
13058;BME280;6595;49.578;11.012;2023-07-28T02:08:23;981.358;;;16.54;94.3
13058;BME280;6595;49.578;11.012;2023-07-28T02:10:26;981.341;;;16.52;94.2
13058;BME280;6595;49.578;11.012;2023-07-28T02:12:23;981.300;;;16.52;94.3
13058;BME280;6595;49.578;11.012;2023-07-28T02:14:24;981.281;;;16.54;94.4
13058;BME280;6595;49.578;11.012;2023-07-28T02:16:24;981.211;;;16.51;94.3
13058;BME280;6595;49.578;11.012;2023-07-28T02:18:23;981.219;;;16.52;94.4
13058;BME280;6595;49.578;11.012;2023-07-28T02:20:24;981.186;;;16.51;94.4
13058;BME280;6595;49.578;11.012;2023-07-28T02:22:23;981.219;;;16.51;94.2
13058;BME280;6595;49.578;11.012;2023-07-28T02:24:23;981.265;;;16.54;94.3
13058;BME280;6595;49.578;11.012;2023-07-28T02:26:24;981.289;;;16.50;94.3
13058;BME280;6595;49.578;11.012;2023-07-28T02:28:23;981.289;;;16.50;94.3
13058;BME280;6595;49.578;11.012;2023-07-28T02:30:24;981.332;;;16.48;94.6
13058;BME280;6595;49.578;11.012;2023-07-28T02:32:24;981.234;;;16.45;94.7
13058;BME280;6595;49.578;11.012;2023-07-28T02:34:23;981.292;;;16.44;94.9
13058;BME280;6595;49.578;11.012;2023-07-28T02:36:24;981.242;;;16.43;94.9
13058;BME280;6595;49.578;11.012;2023-07-28T02:38:23;981.158;;;16.43;95.2
13058;BME280;6595;49.578;11.012;2023-07-28T02:40:23;981.213;;;16.44;95.1
13058;BME280;6595;49.578;11.012;2023-07-28T02:42:24;981.324;;;16.43;95.4
13058;BME280;6595;49.578;11.012;2023-07-28T02:44:23;981.282;;;16.43;95.3
13058;BME280;6595;49.578;11.012;2023-07-28T02:46:23;981.167;;;16.44;95.3
13058;BME280;6595;49.578;11.012;2023-07-28T02:48:24;981.264;;;16.45;95.4
13058;BME280;6595;49.578;11.012;2023-07-28T02:50:24;981.214;;;16.45;95.3
13058;BME280;6595;49.578;11.012;2023-07-28T02:52:23;981.318;;;16.45;95.5
13058;BME280;6595;49.578;11.012;2023-07-28T02:54:24;981.203;;;16.47;95.6
13058;BME280;6595;49.578;11.012;2023-07-28T02:56:23;981.266;;;16.54;95.5
13058;BME280;6595;49.578;11.012;2023-07-28T02:58:23;981.254;;;16.51;95.4
13058;BME280;6595;49.578;11.012;2023-07-28T03:00:24;981.117;;;16.51;95.5
13058;BME280;6595;49.578;11.012;2023-07-28T03:02:24;981.181;;;16.54;95.4
13058;BME280;6595;49.578;11.012;2023-07-28T03:04:23;981.295;;;16.55;95.4
13058;BME280;6595;49.578;11.012;2023-07-28T03:06:23;981.301;;;16.57;95.4
13058;BME280;6595;49.578;11.012;2023-07-28T03:08:24;981.317;;;16.55;95.6
13058;BME280;6595;49.578;11.012;2023-07-28T03:10:23;981.286;;;16.60;95.7
13058;BME280;6595;49.578;11.012;2023-07-28T03:12:24;981.370;;;16.55;95.9
13058;BME280;6595;49.578;11.012;2023-07-28T03:14:24;981.373;;;16.61;95.7
13058;BME280;6595;49.578;11.012;2023-07-28T03:16:23;981.402;;;16.58;95.7
13058;BME280;6595;49.578;11.012;2023-07-28T03:18:23;981.524;;;16.58;95.9
13058;BME280;6595;49.578;11.012;2023-07-28T03:20:24;981.475;;;16.58;95.9
13058;BME280;6595;49.578;11.012;2023-07-28T03:22:23;981.433;;;16.55;95.9
13058;BME280;6595;49.578;11.012;2023-07-28T03:24:23;981.506;;;16.55;95.8
13058;BME280;6595;49.578;11.012;2023-07-28T03:26:24;981.518;;;16.54;95.9
13058;BME280;6595;49.578;11.012;2023-07-28T03:28:23;981.518;;;16.54;95.9
13058;BME280;6595;49.578;11.012;2023-07-28T03:30:24;981.574;;;16.52;96.0
13058;BME280;6595;49.578;11.012;2023-07-28T03:32:24;981.582;;;16.52;96.0
13058;BME280;6595;49.578;11.012;2023-07-28T03:34:24;981.577;;;16.50;95.8
13058;BME280;6595;49.578;11.012;2023-07-28T03:36:23;981.481;;;16.48;96.0
13058;BME280;6595;49.578;11.012;2023-07-28T03:38:24;981.609;;;16.48;95.9
13058;BME280;6595;49.578;11.012;2023-07-28T03:40:24;981.623;;;16.44;95.8
13058;BME280;6595;49.578;11.012;2023-07-28T03:42:23;981.570;;;16.44;95.9
13058;BME280;6595;49.578;11.012;2023-07-28T03:44:24;981.435;;;16.45;96.0
13058;BME280;6595;49.578;11.012;2023-07-28T03:46:24;981.562;;;16.47;96.0
13058;BME280;6595;49.578;11.012;2023-07-28T03:48:23;981.460;;;16.45;96.0
13058;BME280;6595;49.578;11.012;2023-07-28T03:50:24;981.421;;;16.44;96.1
13058;BME280;6595;49.578;11.012;2023-07-28T03:52:24;981.395;;;16.43;96.0
13058;BME280;6595;49.578;11.012;2023-07-28T03:54:23;981.333;;;16.44;95.8
13058;BME280;6595;49.578;11.012;2023-07-28T03:56:24;981.321;;;16.41;95.8
13058;BME280;6595;49.578;11.012;2023-07-28T03:58:24;981.254;;;16.38;95.9
13058;BME280;6595;49.578;11.012;2023-07-28T04:00:23;981.287;;;16.40;95.9
13058;BME280;6595;49.578;11.012;2023-07-28T04:02:24;981.228;;;16.38;96.1
13058;BME280;6595;49.578;11.012;2023-07-28T04:04:24;981.397;;;16.40;96.0
13058;BME280;6595;49.578;11.012;2023-07-28T04:06:41;981.397;;;16.40;96.0
13058;BME280;6595;49.578;11.012;2023-07-28T04:08:24;981.458;;;16.40;96.1
13058;BME280;6595;49.578;11.012;2023-07-28T04:10:23;981.408;;;16.38;96.1
13058;BME280;6595;49.578;11.012;2023-07-28T04:12:23;981.517;;;16.43;96.1
13058;BME280;6595;49.578;11.012;2023-07-28T04:14:24;981.513;;;16.47;96.0
13058;BME280;6595;49.578;11.012;2023-07-28T04:16:23;981.562;;;16.45;96.1
13058;BME280;6595;49.578;11.012;2023-07-28T04:18:23;981.577;;;16.47;96.1
13058;BME280;6595;49.578;11.012;2023-07-28T04:20:24;981.570;;;16.48;96.0
13058;BME280;6595;49.578;11.012;2023-07-28T04:22:23;981.480;;;16.50;96.0
13058;BME280;6595;49.578;11.012;2023-07-28T04:24:24;981.451;;;16.52;95.9
13058;BME280;6595;49.578;11.012;2023-07-28T04:26:24;981.483;;;16.52;95.9
13058;BME280;6595;49.578;11.012;2023-07-28T04:28:23;981.552;;;16.55;95.8
13058;BME280;6595;49.578;11.012;2023-07-28T04:30:23;981.549;;;16.54;95.9
13058;BME280;6595;49.578;11.012;2023-07-28T04:32:24;981.554;;;16.50;95.8
13058;BME280;6595;49.578;11.012;2023-07-28T04:34:24;981.552;;;16.54;95.9
13058;BME280;6595;49.578;11.012;2023-07-28T04:36:23;981.510;;;16.54;96.0
13058;BME280;6595;49.578;11.012;2023-07-28T04:38:24;981.552;;;16.57;96.0
13058;BME280;6595;49.578;11.012;2023-07-28T04:40:23;981.590;;;16.55;96.0
13058;BME280;6595;49.578;11.012;2023-07-28T04:42:23;981.635;;;16.54;96.2
13058;BME280;6595;49.578;11.012;2023-07-28T04:44:24;981.609;;;16.58;96.0
13058;BME280;6595;49.578;11.012;2023-07-28T04:46:23;981.530;;;16.60;96.1
13058;BME280;6595;49.578;11.012;2023-07-28T04:48:23;981.571;;;16.58;96.1
13058;BME280;6595;49.578;11.012;2023-07-28T04:50:24;981.632;;;16.60;96.1
13058;BME280;6595;49.578;11.012;2023-07-28T04:52:24;981.562;;;16.62;95.9
13058;BME280;6595;49.578;11.012;2023-07-28T04:54:23;981.607;;;16.61;95.8
13058;BME280;6595;49.578;11.012;2023-07-28T04:56:24;981.546;;;16.61;95.7
13058;BME280;6595;49.578;11.012;2023-07-28T04:58:24;981.536;;;16.67;95.7
13058;BME280;6595;49.578;11.012;2023-07-28T05:00:23;981.603;;;16.68;95.7
13058;BME280;6595;49.578;11.012;2023-07-28T05:02:24;981.555;;;16.68;95.5
13058;BME280;6595;49.578;11.012;2023-07-28T05:04:24;981.571;;;16.72;95.4
13058;BME280;6595;49.578;11.012;2023-07-28T05:06:23;981.580;;;16.72;95.5
13058;BME280;6595;49.578;11.012;2023-07-28T05:08:24;981.445;;;16.72;95.5
13058;BME280;6595;49.578;11.012;2023-07-28T05:10:23;981.562;;;16.72;95.5
13058;BME280;6595;49.578;11.012;2023-07-28T05:12:23;981.534;;;16.78;95.5
13058;BME280;6595;49.578;11.012;2023-07-28T05:14:24;981.657;;;16.82;95.5
13058;BME280;6595;49.578;11.012;2023-07-28T05:16:24;981.634;;;16.82;95.7
13058;BME280;6595;49.578;11.012;2023-07-28T05:18:23;981.679;;;16.85;95.1
13058;BME280;6595;49.578;11.012;2023-07-28T05:20:24;981.615;;;16.82;95.0
13058;BME280;6595;49.578;11.012;2023-07-28T05:22:24;981.567;;;16.89;95.4
13058;BME280;6595;49.578;11.012;2023-07-28T05:24:23;981.613;;;16.92;95.2
13058;BME280;6595;49.578;11.012;2023-07-28T05:26:23;981.528;;;16.94;95.2
13058;BME280;6595;49.578;11.012;2023-07-28T05:28:24;981.607;;;16.92;95.0
13058;BME280;6595;49.578;11.012;2023-07-28T05:30:24;981.641;;;16.95;94.9
13058;BME280;6595;49.578;11.012;2023-07-28T05:32:23;981.676;;;16.95;94.7
13058;BME280;6595;49.578;11.012;2023-07-28T05:34:23;981.798;;;16.92;94.6
13058;BME280;6595;49.578;11.012;2023-07-28T05:36:24;981.683;;;16.95;95.0
13058;BME280;6595;49.578;11.012;2023-07-28T05:38:23;981.693;;;16.98;95.0
13058;BME280;6595;49.578;11.012;2023-07-28T05:40:23;981.688;;;17.01;94.8
13058;BME280;6595;49.578;11.012;2023-07-28T05:42:25;981.708;;;17.02;94.7
13058;BME280;6595;49.578;11.012;2023-07-28T05:44:23;981.698;;;17.08;94.8
13058;BME280;6595;49.578;11.012;2023-07-28T05:46:23;981.651;;;17.09;94.8
13058;BME280;6595;49.578;11.012;2023-07-28T05:48:24;981.651;;;17.09;94.8
13058;BME280;6595;49.578;11.012;2023-07-28T05:50:24;981.758;;;17.11;94.8
13058;BME280;6595;49.578;11.012;2023-07-28T05:52:23;981.758;;;17.12;94.9
13058;BME280;6595;49.578;11.012;2023-07-28T05:54:23;981.752;;;17.14;94.8
13058;BME280;6595;49.578;11.012;2023-07-28T05:56:24;981.747;;;17.12;94.2
13058;BME280;6595;49.578;11.012;2023-07-28T05:58:23;981.814;;;17.18;94.4
13058;BME280;6595;49.578;11.012;2023-07-28T06:00:24;981.814;;;17.18;94.4
13058;BME280;6595;49.578;11.012;2023-07-28T06:02:23;981.837;;;17.22;94.5
13058;BME280;6595;49.578;11.012;2023-07-28T06:04:23;981.842;;;17.23;94.2
13058;BME280;6595;49.578;11.012;2023-07-28T06:06:23;981.798;;;17.25;93.8
13058;BME280;6595;49.578;11.012;2023-07-28T06:08:24;981.799;;;17.27;93.8
13058;BME280;6595;49.578;11.012;2023-07-28T06:10:23;981.842;;;17.27;93.9
13058;BME280;6595;49.578;11.012;2023-07-28T06:12:23;981.836;;;17.26;93.5
13058;BME280;6595;49.578;11.012;2023-07-28T06:14:24;981.991;;;17.30;93.6
13058;BME280;6595;49.578;11.012;2023-07-28T06:16:23;981.893;;;17.27;93.4
13058;BME280;6595;49.578;11.012;2023-07-28T06:18:23;981.930;;;17.32;93.6
13058;BME280;6595;49.578;11.012;2023-07-28T06:20:24;981.911;;;17.29;93.4
13058;BME280;6595;49.578;11.012;2023-07-28T06:22:23;981.968;;;17.32;93.3
13058;BME280;6595;49.578;11.012;2023-07-28T06:24:24;981.923;;;17.37;93.7
13058;BME280;6595;49.578;11.012;2023-07-28T06:26:24;981.943;;;17.39;93.7
13058;BME280;6595;49.578;11.012;2023-07-28T06:28:23;981.960;;;17.42;93.7
13058;BME280;6595;49.578;11.012;2023-07-28T06:30:23;982.011;;;17.43;93.5
13058;BME280;6595;49.578;11.012;2023-07-28T06:32:24;982.070;;;17.45;93.4
13058;BME280;6595;49.578;11.012;2023-07-28T06:34:24;982.128;;;17.47;93.4
13058;BME280;6595;49.578;11.012;2023-07-28T06:36:23;982.089;;;17.45;93.1
13058;BME280;6595;49.578;11.012;2023-07-28T06:38:24;981.977;;;17.53;93.4
13058;BME280;6595;49.578;11.012;2023-07-28T06:40:24;982.117;;;17.57;93.3
13058;BME280;6595;49.578;11.012;2023-07-28T06:42:23;982.042;;;17.62;93.1
13058;BME280;6595;49.578;11.012;2023-07-28T06:44:24;982.063;;;17.67;93.0
13058;BME280;6595;49.578;11.012;2023-07-28T06:46:23;982.053;;;17.73;92.8
13058;BME280;6595;49.578;11.012;2023-07-28T06:48:24;982.108;;;17.80;92.7
13058;BME280;6595;49.578;11.012;2023-07-28T06:50:24;982.066;;;17.81;92.6
13058;BME280;6595;49.578;11.012;2023-07-28T06:52:23;982.134;;;17.81;92.3
13058;BME280;6595;49.578;11.012;2023-07-28T06:54:24;982.207;;;17.80;92.3
13058;BME280;6595;49.578;11.012;2023-07-28T06:56:23;982.155;;;17.81;92.5
13058;BME280;6595;49.578;11.012;2023-07-28T06:58:23;982.156;;;17.80;92.6
13058;BME280;6595;49.578;11.012;2023-07-28T07:00:24;982.279;;;17.80;92.5
13058;BME280;6595;49.578;11.012;2023-07-28T07:02:23;982.187;;;17.81;92.5
13058;BME280;6595;49.578;11.012;2023-07-28T07:04:23;982.242;;;17.79;92.8
13058;BME280;6595;49.578;11.012;2023-07-28T07:06:24;982.239;;;17.79;92.9
13058;BME280;6595;49.578;11.012;2023-07-28T07:08:23;982.303;;;17.70;92.3
13058;BME280;6595;49.578;11.012;2023-07-28T07:10:24;982.337;;;17.65;92.5
13058;BME280;6595;49.578;11.012;2023-07-28T07:12:24;982.261;;;17.67;92.8
13058;BME280;6595;49.578;11.012;2023-07-28T07:14:23;982.261;;;17.67;92.8
13058;BME280;6595;49.578;11.012;2023-07-28T07:16:24;982.344;;;17.72;93.2
13058;BME280;6595;49.578;11.012;2023-07-28T07:18:23;982.344;;;17.72;93.2
13058;BME280;6595;49.578;11.012;2023-07-28T07:20:23;982.385;;;17.66;93.0
13058;BME280;6595;49.578;11.012;2023-07-28T07:22:24;982.449;;;17.69;93.3
13058;BME280;6595;49.578;11.012;2023-07-28T07:24:23;982.475;;;17.67;93.1
13058;BME280;6595;49.578;11.012;2023-07-28T07:26:23;982.553;;;17.74;93.1
13058;BME280;6595;49.578;11.012;2023-07-28T07:28:24;982.445;;;17.73;92.9
13058;BME280;6595;49.578;11.012;2023-07-28T07:30:23;982.521;;;17.77;92.7
13058;BME280;6595;49.578;11.012;2023-07-28T07:32:24;982.538;;;17.83;92.6
13058;BME280;6595;49.578;11.012;2023-07-28T07:34:24;982.548;;;17.81;92.0
13058;BME280;6595;49.578;11.012;2023-07-28T07:36:23;982.563;;;17.86;91.8
13058;BME280;6595;49.578;11.012;2023-07-28T07:38:24;982.485;;;17.96;91.8
13058;BME280;6595;49.578;11.012;2023-07-28T07:40:24;982.553;;;17.99;91.2
13058;BME280;6595;49.578;11.012;2023-07-28T07:42:23;982.528;;;18.00;91.3
13058;BME280;6595;49.578;11.012;2023-07-28T07:44:24;982.566;;;18.05;91.2
13058;BME280;6595;49.578;11.012;2023-07-28T07:46:23;982.628;;;18.17;91.7
13058;BME280;6595;49.578;11.012;2023-07-28T07:48:23;982.651;;;18.23;91.7
13058;BME280;6595;49.578;11.012;2023-07-28T07:50:24;982.586;;;18.25;91.0
13058;BME280;6595;49.578;11.012;2023-07-28T07:52:23;982.706;;;18.31;91.1
13058;BME280;6595;49.578;11.012;2023-07-28T07:54:23;982.706;;;18.31;91.1
13058;BME280;6595;49.578;11.012;2023-07-28T07:56:24;982.823;;;18.34;89.6
13058;BME280;6595;49.578;11.012;2023-07-28T07:58:23;982.674;;;18.31;90.3
13058;BME280;6595;49.578;11.012;2023-07-28T08:00:23;982.624;;;18.34;90.1
13058;BME280;6595;49.578;11.012;2023-07-28T08:02:24;982.694;;;18.33;89.8
13058;BME280;6595;49.578;11.012;2023-07-28T08:04:23;982.686;;;18.37;89.8
13058;BME280;6595;49.578;11.012;2023-07-28T08:06:23;982.792;;;18.40;89.8
13058;BME280;6595;49.578;11.012;2023-07-28T08:08:24;982.772;;;18.38;89.7
13058;BME280;6595;49.578;11.012;2023-07-28T08:10:23;982.899;;;18.41;89.3
13058;BME280;6595;49.578;11.012;2023-07-28T08:12:23;982.875;;;18.41;89.5
13058;BME280;6595;49.578;11.012;2023-07-28T08:14:24;982.875;;;18.41;89.5
13058;BME280;6595;49.578;11.012;2023-07-28T08:16:23;982.801;;;18.48;88.7
13058;BME280;6595;49.578;11.012;2023-07-28T08:18:24;982.822;;;18.59;88.9
13058;BME280;6595;49.578;11.012;2023-07-28T08:20:24;982.916;;;18.66;88.4
13058;BME280;6595;49.578;11.012;2023-07-28T08:22:23;982.851;;;18.74;88.5
13058;BME280;6595;49.578;11.012;2023-07-28T08:24:24;982.902;;;18.78;88.5
13058;BME280;6595;49.578;11.012;2023-07-28T08:26:23;982.959;;;18.84;87.8
13058;BME280;6595;49.578;11.012;2023-07-28T08:28:23;982.914;;;18.88;87.3
13058;BME280;6595;49.578;11.012;2023-07-28T08:30:24;982.901;;;18.91;86.9
13058;BME280;6595;49.578;11.012;2023-07-28T08:32:24;982.984;;;18.96;86.4
13058;BME280;6595;49.578;11.012;2023-07-28T08:34:24;982.896;;;19.01;86.3
13058;BME280;6595;49.578;11.012;2023-07-28T08:36:23;982.905;;;19.03;86.7
13058;BME280;6595;49.578;11.012;2023-07-28T08:38:24;982.886;;;19.09;86.5
13058;BME280;6595;49.578;11.012;2023-07-28T08:40:24;982.911;;;19.16;86.9
13058;BME280;6595;49.578;11.012;2023-07-28T08:42:23;982.917;;;19.26;86.5
13058;BME280;6595;49.578;11.012;2023-07-28T08:44:24;983.050;;;19.27;86.6
13058;BME280;6595;49.578;11.012;2023-07-28T08:46:24;983.006;;;19.32;86.5
13058;BME280;6595;49.578;11.012;2023-07-28T08:48:24;983.006;;;19.32;86.5
13058;BME280;6595;49.578;11.012;2023-07-28T08:50:23;983.025;;;19.30;86.3
13058;BME280;6595;49.578;11.012;2023-07-28T08:52:24;983.057;;;19.39;86.1
13058;BME280;6595;49.578;11.012;2023-07-28T08:54:23;983.144;;;19.42;85.9
13058;BME280;6595;49.578;11.012;2023-07-28T08:56:24;983.045;;;19.45;86.1
13058;BME280;6595;49.578;11.012;2023-07-28T08:58:24;983.076;;;19.45;85.5
13058;BME280;6595;49.578;11.012;2023-07-28T09:00:23;983.128;;;19.39;85.3
13058;BME280;6595;49.578;11.012;2023-07-28T09:02:24;983.051;;;19.45;85.5
13058;BME280;6595;49.578;11.012;2023-07-28T09:04:24;983.119;;;19.45;85.7
13058;BME280;6595;49.578;11.012;2023-07-28T09:06:28;983.068;;;19.46;85.3
13058;BME280;6595;49.578;11.012;2023-07-28T09:08:23;983.114;;;19.60;84.3
13058;BME280;6595;49.578;11.012;2023-07-28T09:10:24;983.070;;;19.73;84.2
13058;BME280;6595;49.578;11.012;2023-07-28T09:12:23;983.115;;;19.84;84.1
13058;BME280;6595;49.578;11.012;2023-07-28T09:14:23;983.106;;;19.94;82.9
13058;BME280;6595;49.578;11.012;2023-07-28T09:16:24;983.219;;;20.11;82.6
13058;BME280;6595;49.578;11.012;2023-07-28T09:18:25;983.247;;;20.24;82.9
13058;BME280;6595;49.578;11.012;2023-07-28T09:20:23;983.210;;;20.24;82.0
13058;BME280;6595;49.578;11.012;2023-07-28T09:22:24;983.190;;;20.28;81.8
13058;BME280;6595;49.578;11.012;2023-07-28T09:24:30;983.235;;;20.34;81.6
13058;BME280;6595;49.578;11.012;2023-07-28T09:26:23;983.174;;;20.39;81.4
13058;BME280;6595;49.578;11.012;2023-07-28T09:28:36;983.152;;;20.34;80.8
13058;BME280;6595;49.578;11.012;2023-07-28T09:30:24;983.152;;;20.34;80.8
13058;BME280;6595;49.578;11.012;2023-07-28T09:32:28;983.148;;;20.41;81.3
13058;BME280;6595;49.578;11.012;2023-07-28T09:34:24;983.211;;;20.38;80.6
13058;BME280;6595;49.578;11.012;2023-07-28T09:36:24;983.250;;;20.34;81.3
13058;BME280;6595;49.578;11.012;2023-07-28T09:38:27;983.268;;;20.37;81.3
13058;BME280;6595;49.578;11.012;2023-07-28T09:40:24;983.268;;;20.29;80.2
13058;BME280;6595;49.578;11.012;2023-07-28T09:42:24;983.325;;;20.25;80.9
13058;BME280;6595;49.578;11.012;2023-07-28T09:44:24;983.342;;;20.17;81.0
13058;BME280;6595;49.578;11.012;2023-07-28T09:46:24;983.347;;;20.03;80.8
13058;BME280;6595;49.578;11.012;2023-07-28T09:48:24;983.315;;;20.03;81.5
13058;BME280;6595;49.578;11.012;2023-07-28T09:50:26;983.291;;;19.98;81.6
13058;BME280;6595;49.578;11.012;2023-07-28T09:52:24;983.291;;;19.98;81.6
13058;BME280;6595;49.578;11.012;2023-07-28T09:54:25;983.330;;;19.88;81.1
13058;BME280;6595;49.578;11.012;2023-07-28T09:56:27;983.274;;;19.87;81.3
13058;BME280;6595;49.578;11.012;2023-07-28T09:58:25;983.332;;;19.96;81.1
13058;BME280;6595;49.578;11.012;2023-07-28T10:00:23;983.333;;;20.01;81.6
13058;BME280;6595;49.578;11.012;2023-07-28T10:02:23;983.302;;;20.10;81.5
13058;BME280;6595;49.578;11.012;2023-07-28T10:04:24;983.409;;;20.18;80.0
13058;BME280;6595;49.578;11.012;2023-07-28T10:06:24;983.328;;;20.23;80.2
13058;BME280;6595;49.578;11.012;2023-07-28T10:08:24;983.394;;;20.21;79.8
13058;BME280;6595;49.578;11.012;2023-07-28T10:10:25;983.453;;;20.32;79.8
13058;BME280;6595;49.578;11.012;2023-07-28T10:12:24;983.429;;;20.55;78.3
13058;BME280;6595;49.578;11.012;2023-07-28T10:14:27;983.420;;;20.51;77.9
13058;BME280;6595;49.578;11.012;2023-07-28T10:16:37;983.399;;;20.79;77.4
13058;BME280;6595;49.578;11.012;2023-07-28T10:18:25;983.445;;;20.86;76.7
13058;BME280;6595;49.578;11.012;2023-07-28T10:20:28;983.423;;;20.93;77.1
13058;BME280;6595;49.578;11.012;2023-07-28T10:22:26;983.398;;;20.86;77.0
13058;BME280;6595;49.578;11.012;2023-07-28T10:26:31;983.422;;;20.96;77.6
13058;BME280;6595;49.578;11.012;2023-07-28T10:28:26;983.404;;;21.03;77.0
13058;BME280;6595;49.578;11.012;2023-07-28T10:30:24;983.396;;;21.18;77.1
13058;BME280;6595;49.578;11.012;2023-07-28T10:32:25;983.377;;;21.49;75.7
13058;BME280;6595;49.578;11.012;2023-07-28T10:34:24;983.472;;;21.47;75.6
13058;BME280;6595;49.578;11.012;2023-07-28T10:36:33;983.473;;;21.66;76.2
13058;BME280;6595;49.578;11.012;2023-07-28T10:38:32;983.495;;;21.74;74.6
13058;BME280;6595;49.578;11.012;2023-07-28T10:40:27;983.579;;;21.86;74.8
13058;BME280;6595;49.578;11.012;2023-07-28T10:42:23;983.594;;;22.03;75.1
13058;BME280;6595;49.578;11.012;2023-07-28T10:44:24;983.594;;;22.03;75.1
13058;BME280;6595;49.578;11.012;2023-07-28T10:46:24;983.641;;;22.25;74.4
13058;BME280;6595;49.578;11.012;2023-07-28T10:48:23;983.616;;;22.10;73.1
13058;BME280;6595;49.578;11.012;2023-07-28T10:50:24;983.602;;;21.96;74.5
13058;BME280;6595;49.578;11.012;2023-07-28T10:52:23;983.561;;;22.05;74.4
13058;BME280;6595;49.578;11.012;2023-07-28T10:54:23;983.570;;;22.07;74.1